Terminal Aerodrome Forecast
Issued by NWS

Home | Current Version | Previous Version | Text Only | Print | Product List | Glossary On
Versions: 1 2 3 4 5 6 7 8 9 10 11 12 13 14 15 16 17 18 19 20 21 22 23 24 25 26 27 28 29 30 31 32 33 34 35 36 37 38 39 40 41 42 43 44 45 46 47 48 49
100
FTUS43 KDMX 080431 AAB
TAFMCW
TAF AMD
KMCW 080431Z 0805/0824 30019G29KT 5SM -SHSN OVC020
      TEMPO 0805/0807 1/2SM SHSN BLSN BKN015
     FM080700 32026G38KT 1SM -SHSN BLSN SCT006 OVC015
     FM081600 34021G32KT 1/2SM SHSN BLSN OVC010
     FM082300 33016G25KT 4SM BLSN OVC013=

USA.gov is the U.S. government's official web portal to all federal, state and local government web resources and services.